sensor_id;sensor_type;location;lat;lon;timestamp;pressure;altitude;pressure_sealevel;temperature;humidity
41140;BME280;26881;48.784;9.192;2022-12-07T00:03:23;98670.91;;;5.34;85.82
41140;BME280;26881;48.784;9.192;2022-12-07T00:08:46;98664.56;;;5.18;86.75
41140;BME280;26881;48.784;9.192;2022-12-07T00:14:12;98667.00;;;5.22;86.15
41140;BME280;26881;48.784;9.192;2022-12-07T00:19:34;98665.63;;;5.36;85.10
41140;BME280;26881;48.784;9.192;2022-12-07T00:24:55;98672.69;;;5.32;85.49
41140;BME280;26881;48.784;9.192;2022-12-07T00:30:17;98664.81;;;5.10;85.40
41140;BME280;26881;48.784;9.192;2022-12-07T00:35:39;98661.22;;;5.14;86.10
41140;BME280;26881;48.784;9.192;2022-12-07T00:41:03;98655.38;;;5.09;84.65
41140;BME280;26881;48.784;9.192;2022-12-07T00:46:26;98661.19;;;5.16;84.30
41140;BME280;26881;48.784;9.192;2022-12-07T00:51:48;98664.63;;;5.16;83.41
41140;BME280;26881;48.784;9.192;2022-12-07T00:57:10;98656.34;;;5.30;83.55
41140;BME280;26881;48.784;9.192;2022-12-07T01:02:32;98668.00;;;5.18;83.23
41140;BME280;26881;48.784;9.192;2022-12-07T01:07:54;98664.47;;;5.21;83.57
41140;BME280;26881;48.784;9.192;2022-12-07T01:13:16;98658.63;;;5.14;83.10
41140;BME280;26881;48.784;9.192;2022-12-07T01:18:38;98661.88;;;4.96;83.74
41140;BME280;26881;48.784;9.192;2022-12-07T01:24:00;98666.41;;;4.89;83.47
41140;BME280;26881;48.784;9.192;2022-12-07T01:29:22;98665.47;;;4.92;83.09
41140;BME280;26881;48.784;9.192;2022-12-07T01:34:43;98682.59;;;4.96;83.72
41140;BME280;26881;48.784;9.192;2022-12-07T01:40:07;98678.00;;;4.79;84.46
41140;BME280;26881;48.784;9.192;2022-12-07T01:50:56;98682.28;;;5.05;83.90
41140;BME280;26881;48.784;9.192;2022-12-07T01:56:23;98682.53;;;4.99;83.11
41140;BME280;26881;48.784;9.192;2022-12-07T02:01:45;98689.38;;;5.00;83.11
41140;BME280;26881;48.784;9.192;2022-12-07T02:07:08;98687.34;;;5.08;82.42
41140;BME280;26881;48.784;9.192;2022-12-07T02:12:29;98685.78;;;5.04;82.53
41140;BME280;26881;48.784;9.192;2022-12-07T02:18:00;98683.25;;;5.02;82.93
41140;BME280;26881;48.784;9.192;2022-12-07T02:34:44;98661.34;;;5.11;82.54
41140;BME280;26881;48.784;9.192;2022-12-07T02:40:14;98663.47;;;5.00;82.97
41140;BME280;26881;48.784;9.192;2022-12-07T02:45:41;98654.09;;;4.96;83.09
41140;BME280;26881;48.784;9.192;2022-12-07T02:51:04;98653.06;;;5.01;83.55
41140;BME280;26881;48.784;9.192;2022-12-07T02:56:39;98652.09;;;5.04;83.23
41140;BME280;26881;48.784;9.192;2022-12-07T03:02:29;98641.56;;;5.09;83.09
41140;BME280;26881;48.784;9.192;2022-12-07T03:08:07;98637.00;;;5.15;83.39
41140;BME280;26881;48.784;9.192;2022-12-07T03:13:59;98640.59;;;5.11;82.82
41140;BME280;26881;48.784;9.192;2022-12-07T03:19:26;98633.38;;;5.19;82.48
41140;BME280;26881;48.784;9.192;2022-12-07T03:24:55;98632.59;;;5.17;81.94
41140;BME280;26881;48.784;9.192;2022-12-07T03:30:24;98632.53;;;5.19;82.24
41140;BME280;26881;48.784;9.192;2022-12-07T03:35:52;98630.88;;;5.18;82.14
41140;BME280;26881;48.784;9.192;2022-12-07T03:41:22;98624.81;;;5.17;81.97
41140;BME280;26881;48.784;9.192;2022-12-07T03:53:15;98629.84;;;5.22;81.56
41140;BME280;26881;48.784;9.192;2022-12-07T03:58:40;98616.09;;;5.20;81.55
41140;BME280;26881;48.784;9.192;2022-12-07T04:04:03;98623.13;;;5.16;81.50
41140;BME280;26881;48.784;9.192;2022-12-07T04:09:25;98613.56;;;5.18;81.98
41140;BME280;26881;48.784;9.192;2022-12-07T04:14:47;98608.75;;;5.07;82.28
41140;BME280;26881;48.784;9.192;2022-12-07T04:20:09;98603.97;;;4.97;82.47
41140;BME280;26881;48.784;9.192;2022-12-07T04:25:31;98605.38;;;5.05;80.74
41140;BME280;26881;48.784;9.192;2022-12-07T04:30:53;98589.56;;;5.13;81.93
41140;BME280;26881;48.784;9.192;2022-12-07T04:36:14;98584.47;;;5.10;79.62
41140;BME280;26881;48.784;9.192;2022-12-07T04:41:36;98589.47;;;4.91;79.73
41140;BME280;26881;48.784;9.192;2022-12-07T04:46:58;98580.97;;;4.88;80.12
41140;BME280;26881;48.784;9.192;2022-12-07T04:52:20;98575.69;;;4.91;79.32
41140;BME280;26881;48.784;9.192;2022-12-07T04:57:41;98559.97;;;4.95;79.69
41140;BME280;26881;48.784;9.192;2022-12-07T05:03:03;98562.59;;;4.94;79.12
41140;BME280;26881;48.784;9.192;2022-12-07T05:08:25;98583.66;;;4.84;77.65
41140;BME280;26881;48.784;9.192;2022-12-07T05:13:47;98588.16;;;4.79;75.97
41140;BME280;26881;48.784;9.192;2022-12-07T05:19:09;98593.16;;;4.60;74.92
41140;BME280;26881;48.784;9.192;2022-12-07T05:24:31;98593.34;;;4.54;75.06
41140;BME280;26881;48.784;9.192;2022-12-07T05:29:53;98600.56;;;4.71;75.14
41140;BME280;26881;48.784;9.192;2022-12-07T05:35:15;98613.41;;;4.74;75.27
41140;BME280;26881;48.784;9.192;2022-12-07T05:40:37;98618.41;;;4.54;75.89
41140;BME280;26881;48.784;9.192;2022-12-07T05:45:59;98621.00;;;4.54;76.60
41140;BME280;26881;48.784;9.192;2022-12-07T05:51:21;98618.00;;;4.41;77.48
41140;BME280;26881;48.784;9.192;2022-12-07T05:56:43;98633.22;;;4.23;78.97
41140;BME280;26881;48.784;9.192;2022-12-07T06:02:11;98625.66;;;4.17;79.55
41140;BME280;26881;48.784;9.192;2022-12-07T06:07:34;98627.38;;;4.17;80.17
41140;BME280;26881;48.784;9.192;2022-12-07T06:12:56;98619.84;;;4.11;78.80
41140;BME280;26881;48.784;9.192;2022-12-07T06:18:17;98625.88;;;4.10;79.15
41140;BME280;26881;48.784;9.192;2022-12-07T06:23:39;98631.47;;;4.24;79.13
41140;BME280;26881;48.784;9.192;2022-12-07T06:29:01;98623.81;;;4.21;78.74
41140;BME280;26881;48.784;9.192;2022-12-07T06:34:25;98623.22;;;4.13;78.19
41140;BME280;26881;48.784;9.192;2022-12-07T06:39:47;98621.19;;;4.22;77.48
41140;BME280;26881;48.784;9.192;2022-12-07T06:45:09;98624.91;;;4.14;76.40
41140;BME280;26881;48.784;9.192;2022-12-07T06:50:31;98616.03;;;4.21;76.75
41140;BME280;26881;48.784;9.192;2022-12-07T06:55:53;98625.22;;;4.31;75.36
41140;BME280;26881;48.784;9.192;2022-12-07T07:01:16;98633.88;;;4.30;75.38
41140;BME280;26881;48.784;9.192;2022-12-07T07:06:38;98634.38;;;4.41;75.96
41140;BME280;26881;48.784;9.192;2022-12-07T07:12:00;98639.53;;;4.41;76.01
41140;BME280;26881;48.784;9.192;2022-12-07T07:17:22;98640.22;;;4.47;74.97
41140;BME280;26881;48.784;9.192;2022-12-07T07:22:44;98642.72;;;4.50;74.01
41140;BME280;26881;48.784;9.192;2022-12-07T07:28:05;98644.13;;;4.60;73.74
41140;BME280;26881;48.784;9.192;2022-12-07T07:33:27;98651.91;;;4.58;72.91
41140;BME280;26881;48.784;9.192;2022-12-07T07:38:49;98650.22;;;4.82;73.13
41140;BME280;26881;48.784;9.192;2022-12-07T07:44:11;98648.19;;;4.67;72.07
41140;BME280;26881;48.784;9.192;2022-12-07T07:49:32;98655.72;;;4.98;71.60
41140;BME280;26881;48.784;9.192;2022-12-07T07:54:54;98647.72;;;5.06;70.30
41140;BME280;26881;48.784;9.192;2022-12-07T08:00:16;98654.25;;;5.16;70.13
41140;BME280;26881;48.784;9.192;2022-12-07T08:05:38;98658.00;;;5.07;68.82
41140;BME280;26881;48.784;9.192;2022-12-07T08:11:00;98661.59;;;5.03;68.56
41140;BME280;26881;48.784;9.192;2022-12-07T08:16:23;98656.63;;;5.22;67.83
41140;BME280;26881;48.784;9.192;2022-12-07T08:21:45;98659.25;;;5.21;67.62
41140;BME280;26881;48.784;9.192;2022-12-07T08:27:06;98663.44;;;5.25;70.17
41140;BME280;26881;48.784;9.192;2022-12-07T08:32:28;98664.41;;;5.91;71.00
41140;BME280;26881;48.784;9.192;2022-12-07T08:37:50;98672.56;;;5.82;67.01
41140;BME280;26881;48.784;9.192;2022-12-07T08:43:12;98679.16;;;5.45;68.51
41140;BME280;26881;48.784;9.192;2022-12-07T08:48:36;98670.50;;;5.45;68.38
41140;BME280;26881;48.784;9.192;2022-12-07T08:54:00;98671.94;;;5.28;68.64
41140;BME280;26881;48.784;9.192;2022-12-07T08:59:24;98674.28;;;5.36;69.17
41140;BME280;26881;48.784;9.192;2022-12-07T09:04:46;98677.09;;;5.30;68.40
41140;BME280;26881;48.784;9.192;2022-12-07T09:10:08;98671.69;;;5.36;68.60
41140;BME280;26881;48.784;9.192;2022-12-07T09:15:30;98668.56;;;5.50;68.25
41140;BME280;26881;48.784;9.192;2022-12-07T09:20:52;98669.88;;;5.62;67.41
41140;BME280;26881;48.784;9.192;2022-12-07T09:26:14;98667.97;;;5.67;66.74
41140;BME280;26881;48.784;9.192;2022-12-07T09:31:36;98668.50;;;5.75;65.95
41140;BME280;26881;48.784;9.192;2022-12-07T09:37:00;98665.84;;;5.77;65.64
41140;BME280;26881;48.784;9.192;2022-12-07T09:42:28;98668.28;;;5.81;65.26
41140;BME280;26881;48.784;9.192;2022-12-07T09:47:51;98669.13;;;5.82;65.14
41140;BME280;26881;48.784;9.192;2022-12-07T09:53:24;98656.56;;;5.93;65.10
41140;BME280;26881;48.784;9.192;2022-12-07T09:58:47;98647.22;;;5.89;64.77
41140;BME280;26881;48.784;9.192;2022-12-07T10:04:20;98639.22;;;5.95;65.64
41140;BME280;26881;48.784;9.192;2022-12-07T10:09:43;98638.06;;;6.02;65.78
41140;BME280;26881;48.784;9.192;2022-12-07T10:15:05;98632.66;;;5.85;65.73
41140;BME280;26881;48.784;9.192;2022-12-07T10:20:29;98625.56;;;5.90;65.81
41140;BME280;26881;48.784;9.192;2022-12-07T10:25:52;98621.72;;;6.00;66.65
41140;BME280;26881;48.784;9.192;2022-12-07T10:31:19;98617.44;;;5.99;66.09
41140;BME280;26881;48.784;9.192;2022-12-07T10:36:41;98628.06;;;5.91;66.46
41140;BME280;26881;48.784;9.192;2022-12-07T10:42:03;98622.88;;;5.91;66.42
41140;BME280;26881;48.784;9.192;2022-12-07T10:47:36;98616.69;;;5.96;67.41
41140;BME280;26881;48.784;9.192;2022-12-07T10:53:18;98608.78;;;5.99;66.85
41140;BME280;26881;48.784;9.192;2022-12-07T11:04:33;98598.03;;;6.08;67.60
41140;BME280;26881;48.784;9.192;2022-12-07T11:10:18;98591.28;;;6.04;67.52
41140;BME280;26881;48.784;9.192;2022-12-07T11:16:04;98586.81;;;6.07;69.11
41140;BME280;26881;48.784;9.192;2022-12-07T11:22:01;98577.06;;;6.12;69.50
41140;BME280;26881;48.784;9.192;2022-12-07T11:27:43;98577.84;;;6.15;69.81
41140;BME280;26881;48.784;9.192;2022-12-07T11:33:19;98570.06;;;6.15;69.91
41140;BME280;26881;48.784;9.192;2022-12-07T11:38:53;98567.84;;;6.05;69.23
41140;BME280;26881;48.784;9.192;2022-12-07T11:44:38;98561.09;;;6.01;70.39
41140;BME280;26881;48.784;9.192;2022-12-07T11:55:43;98549.38;;;5.91;72.94
41140;BME280;26881;48.784;9.192;2022-12-07T12:06:48;98536.56;;;5.86;74.05
41140;BME280;26881;48.784;9.192;2022-12-07T12:24:03;98535.63;;;6.11;74.42
41140;BME280;26881;48.784;9.192;2022-12-07T12:29:36;98532.13;;;5.90;74.52
41140;BME280;26881;48.784;9.192;2022-12-07T12:40:44;98533.84;;;6.11;74.10
41140;BME280;26881;48.784;9.192;2022-12-07T12:57:25;98522.44;;;5.94;72.84
41140;BME280;26881;48.784;9.192;2022-12-07T13:02:52;98519.34;;;6.06;72.65
41140;BME280;26881;48.784;9.192;2022-12-07T13:08:17;98505.88;;;6.18;72.15
41140;BME280;26881;48.784;9.192;2022-12-07T13:13:40;98506.72;;;6.19;72.13
41140;BME280;26881;48.784;9.192;2022-12-07T13:19:02;98498.66;;;6.04;71.73
41140;BME280;26881;48.784;9.192;2022-12-07T13:24:24;98491.59;;;6.08;72.12
41140;BME280;26881;48.784;9.192;2022-12-07T13:29:46;98493.19;;;6.10;71.08
41140;BME280;26881;48.784;9.192;2022-12-07T13:35:30;98498.91;;;5.98;71.26
41140;BME280;26881;48.784;9.192;2022-12-07T13:41:00;98493.53;;;6.03;70.94
41140;BME280;26881;48.784;9.192;2022-12-07T13:46:29;98492.41;;;5.88;70.86
41140;BME280;26881;48.784;9.192;2022-12-07T13:51:53;98492.25;;;5.91;71.17
41140;BME280;26881;48.784;9.192;2022-12-07T13:57:16;98488.19;;;5.85;71.21
41140;BME280;26881;48.784;9.192;2022-12-07T14:02:57;98484.31;;;5.96;71.34
41140;BME280;26881;48.784;9.192;2022-12-07T14:08:23;98486.47;;;5.84;71.48
41140;BME280;26881;48.784;9.192;2022-12-07T14:13:59;98490.28;;;5.76;72.13
41140;BME280;26881;48.784;9.192;2022-12-07T14:30:34;98478.50;;;5.89;71.66
41140;BME280;26881;48.784;9.192;2022-12-07T14:35:56;98470.91;;;5.84;71.36
41140;BME280;26881;48.784;9.192;2022-12-07T14:41:21;98477.78;;;5.85;72.23
41140;BME280;26881;48.784;9.192;2022-12-07T14:47:02;98476.56;;;5.74;73.04
41140;BME280;26881;48.784;9.192;2022-12-07T14:52:48;98485.09;;;5.76;72.97
41140;BME280;26881;48.784;9.192;2022-12-07T14:58:31;98487.59;;;5.79;72.32
41140;BME280;26881;48.784;9.192;2022-12-07T15:03:54;98486.00;;;5.75;72.56
41140;BME280;26881;48.784;9.192;2022-12-07T15:09:15;98479.00;;;5.77;73.49
41140;BME280;26881;48.784;9.192;2022-12-07T15:14:37;98484.81;;;5.83;73.00
41140;BME280;26881;48.784;9.192;2022-12-07T15:19:59;98481.19;;;5.87;73.37
41140;BME280;26881;48.784;9.192;2022-12-07T15:25:20;98485.25;;;5.93;73.23
41140;BME280;26881;48.784;9.192;2022-12-07T15:30:43;98491.47;;;5.89;73.01
41140;BME280;26881;48.784;9.192;2022-12-07T15:36:07;98482.25;;;5.82;72.49
41140;BME280;26881;48.784;9.192;2022-12-07T15:41:29;98485.09;;;5.76;72.13
41140;BME280;26881;48.784;9.192;2022-12-07T15:46:51;98491.56;;;5.65;72.95
41140;BME280;26881;48.784;9.192;2022-12-07T15:52:13;98480.13;;;5.49;73.12
41140;BME280;26881;48.784;9.192;2022-12-07T15:57:36;98481.94;;;5.47;74.51
41140;BME280;26881;48.784;9.192;2022-12-07T16:02:58;98473.66;;;5.59;73.24
41140;BME280;26881;48.784;9.192;2022-12-07T16:08:20;98469.53;;;5.76;72.74
41140;BME280;26881;48.784;9.192;2022-12-07T16:13:42;98468.69;;;5.75;73.03
41140;BME280;26881;48.784;9.192;2022-12-07T16:19:04;98462.16;;;5.66;73.45
41140;BME280;26881;48.784;9.192;2022-12-07T16:24:26;98460.69;;;5.59;73.29
41140;BME280;26881;48.784;9.192;2022-12-07T16:29:47;98458.59;;;5.47;73.15
41140;BME280;26881;48.784;9.192;2022-12-07T16:35:10;98456.47;;;5.57;73.62
41140;BME280;26881;48.784;9.192;2022-12-07T16:40:32;98459.59;;;5.43;73.33
41140;BME280;26881;48.784;9.192;2022-12-07T16:45:54;98437.69;;;5.30;73.27
41140;BME280;26881;48.784;9.192;2022-12-07T16:51:16;98439.00;;;5.18;73.56
41140;BME280;26881;48.784;9.192;2022-12-07T16:56:38;98428.44;;;5.00;74.48
41140;BME280;26881;48.784;9.192;2022-12-07T17:01:59;98427.78;;;4.95;73.83
41140;BME280;26881;48.784;9.192;2022-12-07T17:07:21;98420.94;;;4.94;74.12
41140;BME280;26881;48.784;9.192;2022-12-07T17:12:43;98421.75;;;4.95;74.24
41140;BME280;26881;48.784;9.192;2022-12-07T17:18:05;98412.97;;;4.99;73.60
41140;BME280;26881;48.784;9.192;2022-12-07T17:23:26;98402.34;;;4.83;74.09
41140;BME280;26881;48.784;9.192;2022-12-07T17:28:49;98399.09;;;4.78;74.90
41140;BME280;26881;48.784;9.192;2022-12-07T17:34:12;98391.66;;;5.13;74.31
41140;BME280;26881;48.784;9.192;2022-12-07T17:39:34;98397.16;;;5.27;73.82
41140;BME280;26881;48.784;9.192;2022-12-07T17:44:55;98399.69;;;5.28;73.73
41140;BME280;26881;48.784;9.192;2022-12-07T17:50:17;98400.03;;;5.19;73.58
41140;BME280;26881;48.784;9.192;2022-12-07T17:55:59;98390.22;;;5.27;73.38
41140;BME280;26881;48.784;9.192;2022-12-07T18:01:41;98393.53;;;5.31;73.90
41140;BME280;26881;48.784;9.192;2022-12-07T18:07:03;98394.75;;;5.22;73.02
41140;BME280;26881;48.784;9.192;2022-12-07T18:12:27;98394.03;;;5.19;74.38
41140;BME280;26881;48.784;9.192;2022-12-07T18:17:49;98396.00;;;5.12;74.24
41140;BME280;26881;48.784;9.192;2022-12-07T18:23:12;98396.44;;;5.23;73.99
41140;BME280;26881;48.784;9.192;2022-12-07T18:28:34;98397.41;;;5.21;73.05
41140;BME280;26881;48.784;9.192;2022-12-07T18:34:02;98393.38;;;5.14;73.17
41140;BME280;26881;48.784;9.192;2022-12-07T18:39:25;98394.53;;;5.06;73.93
41140;BME280;26881;48.784;9.192;2022-12-07T18:44:54;98397.44;;;5.19;73.83
41140;BME280;26881;48.784;9.192;2022-12-07T18:50:16;98392.44;;;5.15;73.31
41140;BME280;26881;48.784;9.192;2022-12-07T18:55:38;98391.44;;;5.19;73.98
41140;BME280;26881;48.784;9.192;2022-12-07T19:01:00;98388.22;;;5.12;73.55
41140;BME280;26881;48.784;9.192;2022-12-07T19:06:22;98396.78;;;5.14;73.87
41140;BME280;26881;48.784;9.192;2022-12-07T19:11:44;98392.25;;;4.99;74.14
41140;BME280;26881;48.784;9.192;2022-12-07T19:17:13;98392.81;;;4.83;74.67
41140;BME280;26881;48.784;9.192;2022-12-07T19:22:35;98391.19;;;4.81;74.81
41140;BME280;26881;48.784;9.192;2022-12-07T19:27:57;98384.75;;;4.69;75.00
41140;BME280;26881;48.784;9.192;2022-12-07T19:33:18;98389.66;;;4.75;75.03
41140;BME280;26881;48.784;9.192;2022-12-07T19:38:40;98381.31;;;4.91;74.32
41140;BME280;26881;48.784;9.192;2022-12-07T19:44:10;98389.56;;;5.00;74.91
41140;BME280;26881;48.784;9.192;2022-12-07T19:49:33;98381.00;;;4.98;75.04
41140;BME280;26881;48.784;9.192;2022-12-07T19:54:56;98381.00;;;4.98;74.75
41140;BME280;26881;48.784;9.192;2022-12-07T20:00:18;98372.53;;;4.95;74.82
41140;BME280;26881;48.784;9.192;2022-12-07T20:05:40;98366.78;;;4.86;73.88
41140;BME280;26881;48.784;9.192;2022-12-07T20:11:02;98365.91;;;4.88;73.77
41140;BME280;26881;48.784;9.192;2022-12-07T20:16:43;98359.91;;;4.63;74.65
41140;BME280;26881;48.784;9.192;2022-12-07T20:22:06;98365.69;;;4.70;74.85
41140;BME280;26881;48.784;9.192;2022-12-07T20:27:28;98360.50;;;4.70;74.78
41140;BME280;26881;48.784;9.192;2022-12-07T20:32:51;98356.53;;;4.61;74.07
41140;BME280;26881;48.784;9.192;2022-12-07T20:38:13;98348.56;;;4.66;73.65
41140;BME280;26881;48.784;9.192;2022-12-07T20:43:35;98340.16;;;4.61;73.06
41140;BME280;26881;48.784;9.192;2022-12-07T20:48:57;98334.75;;;4.67;73.72
41140;BME280;26881;48.784;9.192;2022-12-07T20:54:21;98334.78;;;4.65;73.85
41140;BME280;26881;48.784;9.192;2022-12-07T20:59:43;98323.28;;;4.51;73.96
41140;BME280;26881;48.784;9.192;2022-12-07T21:05:05;98325.56;;;4.58;73.79
41140;BME280;26881;48.784;9.192;2022-12-07T21:10:27;98323.63;;;4.63;73.45
41140;BME280;26881;48.784;9.192;2022-12-07T21:15:49;98319.81;;;4.74;73.03
41140;BME280;26881;48.784;9.192;2022-12-07T21:21:11;98312.44;;;4.63;73.42
41140;BME280;26881;48.784;9.192;2022-12-07T21:26:34;98309.81;;;4.64;73.53
41140;BME280;26881;48.784;9.192;2022-12-07T21:31:56;98307.13;;;4.66;73.20
41140;BME280;26881;48.784;9.192;2022-12-07T21:37:18;98304.81;;;4.60;73.89
41140;BME280;26881;48.784;9.192;2022-12-07T21:42:40;98295.69;;;4.50;74.27
41140;BME280;26881;48.784;9.192;2022-12-07T21:48:03;98291.06;;;4.58;73.87
41140;BME280;26881;48.784;9.192;2022-12-07T21:53:25;98288.84;;;4.49;73.64
41140;BME280;26881;48.784;9.192;2022-12-07T21:58:48;98281.06;;;4.49;74.16
41140;BME280;26881;48.784;9.192;2022-12-07T22:04:13;98292.50;;;4.43;74.01
41140;BME280;26881;48.784;9.192;2022-12-07T22:09:37;98299.50;;;4.41;74.15
41140;BME280;26881;48.784;9.192;2022-12-07T22:14:59;98289.66;;;4.27;74.99
41140;BME280;26881;48.784;9.192;2022-12-07T22:20:27;98289.53;;;4.30;74.56
41140;BME280;26881;48.784;9.192;2022-12-07T22:25:49;98294.28;;;4.19;74.93
41140;BME280;26881;48.784;9.192;2022-12-07T22:31:13;98292.78;;;4.13;75.20
41140;BME280;26881;48.784;9.192;2022-12-07T22:36:35;98287.59;;;4.13;75.54
41140;BME280;26881;48.784;9.192;2022-12-07T22:41:57;98292.03;;;4.10;75.25
41140;BME280;26881;48.784;9.192;2022-12-07T22:47:19;98283.06;;;3.96;75.35
41140;BME280;26881;48.784;9.192;2022-12-07T22:52:40;98282.03;;;4.00;75.79
41140;BME280;26881;48.784;9.192;2022-12-07T22:58:02;98283.31;;;3.89;76.13
41140;BME280;26881;48.784;9.192;2022-12-07T23:03:24;98272.09;;;3.90;76.33
41140;BME280;26881;48.784;9.192;2022-12-07T23:08:47;98269.00;;;3.80;76.67
41140;BME280;26881;48.784;9.192;2022-12-07T23:14:21;98264.72;;;3.79;76.84
41140;BME280;26881;48.784;9.192;2022-12-07T23:19:43;98269.38;;;3.69;77.13
41140;BME280;26881;48.784;9.192;2022-12-07T23:25:05;98267.66;;;3.68;76.72
41140;BME280;26881;48.784;9.192;2022-12-07T23:30:27;98262.63;;;3.65;76.90
41140;BME280;26881;48.784;9.192;2022-12-07T23:35:49;98256.78;;;3.60;77.19
41140;BME280;26881;48.784;9.192;2022-12-07T23:41:13;98248.84;;;3.65;77.30
41140;BME280;26881;48.784;9.192;2022-12-07T23:46:35;98239.13;;;3.71;77.39
41140;BME280;26881;48.784;9.192;2022-12-07T23:51:57;98237.84;;;3.83;76.70
41140;BME280;26881;48.784;9.192;2022-12-07T23:57:18;98223.81;;;3.89;76.84
